createdAt,value
2023-04-22T00:00:03.833Z,3.5
2023-04-22T00:10:06.241Z,3.6
2023-04-22T00:20:08.529Z,3.2
2023-04-22T00:30:10.821Z,3.3
2023-04-22T00:40:13.017Z,3.1
2023-04-22T00:50:15.214Z,2.9
2023-04-22T01:00:17.381Z,2.6
2023-04-22T01:10:19.507Z,3.3
2023-04-22T01:20:21.637Z,3.6
2023-04-22T01:30:23.771Z,2.8
2023-04-22T01:40:25.884Z,2.8
2023-04-22T01:50:28.043Z,2.6
2023-04-22T02:00:29.915Z,2.4
2023-04-22T02:10:31.936Z,2.4
2023-04-22T02:20:34.083Z,2.7
2023-04-22T02:30:36.051Z,2.6
2023-04-22T02:40:37.998Z,2.2
2023-04-22T02:50:40.149Z,2.5
2023-04-22T03:00:42.077Z,2.6
2023-04-22T03:10:43.995Z,2.5
2023-04-22T03:20:45.934Z,3
2023-04-22T03:30:47.993Z,2.3
2023-04-22T03:40:51.540Z,2.4
2023-04-22T03:50:51.802Z,2.3
2023-04-22T04:00:53.605Z,2.5
2023-04-22T04:10:55.511Z,2.8
2023-04-22T04:20:57.396Z,2.4
2023-04-22T04:30:59.154Z,2.4
2023-04-22T04:41:01.008Z,2.5
2023-04-22T04:51:02.748Z,2.5
2023-04-22T05:01:04.646Z,2.5
2023-04-22T05:11:06.372Z,2.2
2023-04-22T05:21:08.197Z,2.2
2023-04-22T05:31:10.024Z,2.8
2023-04-22T05:41:11.790Z,2
2023-04-22T05:51:13.567Z,2.3
2023-04-22T06:01:15.211Z,2.6
2023-04-22T06:11:16.996Z,2.2
2023-04-22T06:21:18.613Z,2.6
2023-04-22T06:31:21.114Z,2.1
2023-04-22T06:41:22.195Z,2.1
2023-04-22T06:51:23.928Z,2
2023-04-22T07:01:25.704Z,2.3
2023-04-22T07:11:27.439Z,2.4
2023-04-22T07:21:29.214Z,2.1
2023-04-22T07:31:31.136Z,2
2023-04-22T07:41:32.883Z,1.7
2023-04-22T07:51:34.655Z,1.9
2023-04-22T08:01:36.405Z,1.8
2023-04-22T08:11:38.186Z,2.1
2023-04-22T08:21:40.036Z,1.7
2023-04-22T08:31:41.904Z,2.1
2023-04-22T08:41:43.568Z,1.7
2023-04-22T08:51:45.255Z,2
2023-04-22T09:01:47.044Z,2.1
2023-04-22T09:11:48.674Z,1.8
2023-04-22T09:21:51.461Z,1.7
2023-04-22T09:31:52.080Z,1.7
2023-04-22T09:41:53.564Z,1.5
2023-04-22T09:51:55.107Z,1.6
2023-04-22T10:01:56.730Z,1.5
2023-04-22T10:11:58.288Z,1.8
2023-04-22T10:21:59.984Z,1.9
2023-04-22T10:32:01.661Z,1.7
2023-04-22T10:42:03.259Z,1.9
2023-04-22T10:45:47.737Z,1.9
2023-04-22T10:52:05.006Z,2.5
2023-04-22T11:02:06.782Z,2.2
2023-04-22T11:12:24.089Z,2.2
2023-04-22T11:22:10.039Z,2.1
2023-04-22T11:32:11.672Z,2.4
2023-04-22T11:42:13.517Z,2.6
2023-04-22T11:52:15.228Z,2.1
2023-04-22T12:02:17.068Z,2.2
2023-04-22T12:12:18.779Z,2
2023-04-22T12:22:20.577Z,2.3
2023-04-22T12:32:24.322Z,2.3
2023-04-22T12:42:24.359Z,2.7
2023-04-22T12:52:26.224Z,2.2
2023-04-22T13:02:28.299Z,2.2
2023-04-22T13:12:30.228Z,2.4
2023-04-22T13:22:32.165Z,2.5
2023-04-22T13:32:34.266Z,2.9
2023-04-22T13:42:36.308Z,1.9
2023-04-22T13:52:38.428Z,2.5
2023-04-22T14:02:40.585Z,1.9
2023-04-22T14:12:42.749Z,1.9
2023-04-22T14:22:44.911Z,2.4
2023-04-22T14:32:47.151Z,1.9
2023-04-22T14:42:49.289Z,2.4
2023-04-22T14:52:51.514Z,2.1
2023-04-22T15:02:53.737Z,2.2
2023-04-22T15:12:55.890Z,2.1
2023-04-22T15:22:58.315Z,2.2
2023-04-22T15:33:00.681Z,2.2
2023-04-22T15:43:02.997Z,2
2023-04-22T15:53:05.350Z,2.3
2023-04-22T16:03:07.867Z,2.4
2023-04-22T16:13:10.282Z,2.3
2023-04-22T16:23:12.756Z,2.1
2023-04-22T16:33:15.281Z,2
2023-04-22T16:43:17.823Z,2
2023-04-22T16:53:20.284Z,2.4
2023-04-22T17:03:22.941Z,2.1
2023-04-22T17:13:25.410Z,2.4
2023-04-22T17:23:27.965Z,2.2
2023-04-22T17:33:30.445Z,2.3
2023-04-22T17:43:32.985Z,2.2
2023-04-22T17:53:35.602Z,2
2023-04-22T18:03:38.391Z,2.1
2023-04-22T18:13:40.855Z,2.1
2023-04-22T18:23:43.578Z,1.9
2023-04-22T18:33:46.097Z,1.9
2023-04-22T18:43:48.669Z,2
2023-04-22T18:53:51.391Z,2.2
2023-04-22T19:03:54.019Z,1.6
2023-04-22T19:13:56.318Z,2.4
2023-04-22T19:23:58.945Z,2.4
2023-04-22T19:34:01.411Z,2.2
2023-04-22T19:44:03.852Z,2.3
2023-04-22T19:54:06.293Z,2
2023-04-22T20:04:08.884Z,2.2
2023-04-22T20:14:11.323Z,2.1
2023-04-22T20:24:13.638Z,1.9
2023-04-22T20:34:16.174Z,2.1
2023-04-22T20:44:18.278Z,2.3
2023-04-22T20:54:28.247Z,2.8
2023-04-22T21:04:22.834Z,2.3
2023-04-22T21:14:24.775Z,3.5
2023-04-22T21:24:26.662Z,3.6
2023-04-22T21:34:28.528Z,3.6
2023-04-22T21:44:30.620Z,4.3
2023-04-22T21:54:32.329Z,4.2
2023-04-22T22:04:34.287Z,6.3
2023-04-22T22:14:36.128Z,5.2
2023-04-22T22:24:38.164Z,5.1
2023-04-22T22:34:39.981Z,4.3
2023-04-22T22:44:41.923Z,6
2023-04-22T22:54:43.555Z,4.4
2023-04-22T23:04:45.973Z,3.7
2023-04-22T23:14:46.971Z,3.4
2023-04-22T23:24:48.896Z,3.1
2023-04-22T23:34:50.524Z,3.2
2023-04-22T23:44:52.185Z,3.5
2023-04-22T23:54:54.044Z,3.6
